createdAt,value
2023-01-31T00:01:58.868Z,97030.42
2023-01-31T00:04:27.011Z,97028.80
2023-01-31T00:06:54.911Z,97031.94
2023-01-31T00:09:22.829Z,97034.27
2023-01-31T00:11:50.828Z,97034.52
2023-01-31T00:14:22.747Z,97036.30
2023-01-31T00:16:52.281Z,97034.79
2023-01-31T00:19:20.276Z,97031.81
2023-01-31T00:21:48.331Z,97031.86
2023-01-31T00:24:16.329Z,97031.02
2023-01-31T00:26:44.448Z,97030.00
2023-01-31T00:29:12.427Z,97030.45
2023-01-31T00:31:40.611Z,97030.62
2023-01-31T00:34:08.811Z,97028.11
2023-01-31T00:36:37.763Z,97026.14
2023-01-31T00:39:08.461Z,97023.13
2023-01-31T00:41:38.627Z,97022.78
2023-01-31T00:44:07.440Z,97018.89
2023-01-31T00:46:36.475Z,97022.14
2023-01-31T00:49:04.776Z,97021.52
2023-01-31T00:51:32.919Z,97018.55
2023-01-31T00:54:00.944Z,97018.69
2023-01-31T00:56:29.279Z,97021.00
2023-01-31T00:58:57.451Z,97016.70
2023-01-31T01:01:28.228Z,97011.09
2023-01-31T01:03:57.845Z,97014.98
2023-01-31T01:06:26.926Z,97018.20
2023-01-31T01:08:57.554Z,97017.64
2023-01-31T01:11:32.063Z,97014.98
2023-01-31T01:14:01.166Z,97016.30
2023-01-31T01:16:38.271Z,97018.87
2023-01-31T01:19:10.633Z,97020.85
2023-01-31T01:21:39.600Z,97017.05
2023-01-31T01:24:19.061Z,97015.60
2023-01-31T01:26:48.637Z,97016.91
2023-01-31T01:29:16.647Z,97017.30
2023-01-31T01:31:45.830Z,97017.36
2023-01-31T01:34:16.308Z,97021.42
2023-01-31T01:36:47.530Z,97019.84
2023-01-31T01:39:18.249Z,97015.92
2023-01-31T01:41:47.680Z,97018.55
2023-01-31T01:44:46.811Z,97025.80
2023-01-31T01:47:30.666Z,97025.88
2023-01-31T01:50:17.780Z,97029.91
2023-01-31T01:52:50.727Z,97032.41
2023-01-31T01:55:22.271Z,97037.41
2023-01-31T01:57:54.289Z,97038.36
2023-01-31T02:00:27.442Z,97041.95
2023-01-31T02:02:59.351Z,97043.73
2023-01-31T02:05:53.572Z,97043.73
2023-01-31T02:08:25.900Z,97047.02
2023-01-31T02:11:04.430Z,97046.58
2023-01-31T02:13:33.503Z,97049.27
2023-01-31T02:16:01.558Z,97056.10
2023-01-31T02:18:29.857Z,97052.30
2023-01-31T02:21:00.699Z,97056.27
2023-01-31T02:23:59.295Z,97055.70
2023-01-31T02:26:46.131Z,97057.00
2023-01-31T02:29:35.475Z,97058.67
2023-01-31T02:32:31.091Z,97065.30
2023-01-31T02:35:02.113Z,97064.97
2023-01-31T02:37:40.008Z,97067.16
2023-01-31T02:40:23.003Z,97069.51
2023-01-31T02:43:10.001Z,97074.42
2023-01-31T02:46:00.245Z,97078.95
2023-01-31T02:48:43.687Z,97080.83
2023-01-31T02:51:25.074Z,97082.22
2023-01-31T02:54:01.736Z,97076.98
2023-01-31T02:56:33.694Z,97077.04
2023-01-31T02:59:10.465Z,97074.77
2023-01-31T03:01:42.814Z,97063.57
2023-01-31T03:04:13.632Z,97055.58
2023-01-31T03:06:54.868Z,97056.21
2023-01-31T03:09:36.880Z,97062.30
2023-01-31T03:12:12.121Z,97058.86
2023-01-31T03:14:53.236Z,97058.13
2023-01-31T03:17:35.217Z,97072.37
2023-01-31T03:20:08.535Z,97077.23
2023-01-31T03:22:48.866Z,97083.92
2023-01-31T03:25:22.046Z,97080.25
2023-01-31T03:27:57.060Z,97081.80
2023-01-31T03:30:37.738Z,97078.38
2023-01-31T03:33:15.896Z,97074.38
2023-01-31T03:35:52.596Z,97078.04
2023-01-31T03:38:25.834Z,97080.95
2023-01-31T03:40:58.233Z,97081.56
2023-01-31T03:43:40.656Z,97081.29
2023-01-31T03:46:16.891Z,97081.16
2023-01-31T03:48:51.281Z,97080.83
2023-01-31T03:51:24.998Z,97075.73
2023-01-31T03:54:00.375Z,97074.70
2023-01-31T03:56:50.975Z,97084.44
2023-01-31T03:59:24.913Z,97083.40
2023-01-31T04:01:57.774Z,97088.56
2023-01-31T04:04:32.886Z,97090.13
2023-01-31T04:07:02.063Z,97085.83
2023-01-31T04:09:31.452Z,97085.46
2023-01-31T04:12:01.765Z,97083.45
2023-01-31T04:14:29.818Z,97082.64
2023-01-31T04:16:57.891Z,97085.88
2023-01-31T04:19:25.854Z,97089.73
2023-01-31T04:21:54.009Z,97094.58
2023-01-31T04:24:23.249Z,97093.00
2023-01-31T04:26:51.232Z,97087.65
2023-01-31T04:29:19.417Z,97084.61
2023-01-31T04:31:47.816Z,97087.20
2023-01-31T04:34:15.841Z,97091.61
2023-01-31T04:36:43.859Z,97100.05
2023-01-31T04:39:13.715Z,97103.06
2023-01-31T04:41:41.711Z,97104.10
2023-01-31T04:44:10.474Z,97104.75
2023-01-31T04:46:38.614Z,97102.43
2023-01-31T04:49:06.780Z,97101.56
2023-01-31T04:51:35.131Z,97102.46
2023-01-31T04:54:03.134Z,97105.02
2023-01-31T04:56:32.119Z,97106.02
2023-01-31T04:59:00.166Z,97106.95
2023-01-31T05:01:29.296Z,97109.74
2023-01-31T05:03:57.301Z,97109.98
2023-01-31T05:06:25.375Z,97108.95
2023-01-31T05:08:54.619Z,97102.20
2023-01-31T05:11:22.603Z,97109.67
2023-01-31T05:13:50.576Z,97112.50
2023-01-31T05:16:18.637Z,97108.39
2023-01-31T05:18:46.631Z,97111.20
2023-01-31T05:21:14.805Z,97107.98
2023-01-31T05:23:42.792Z,97101.35
2023-01-31T05:26:11.407Z,97087.70
2023-01-31T05:28:39.422Z,97093.52
2023-01-31T05:31:09.093Z,97097.30
2023-01-31T05:33:38.320Z,97106.44
2023-01-31T05:36:07.060Z,97110.47
2023-01-31T05:38:35.666Z,97110.67
2023-01-31T05:41:03.706Z,97110.38
2023-01-31T05:43:32.284Z,97109.27
2023-01-31T05:46:02.703Z,97110.95
2023-01-31T05:48:31.097Z,97110.95
2023-01-31T05:50:59.183Z,97111.75
2023-01-31T05:53:27.357Z,97120.94
2023-01-31T05:55:55.652Z,97121.80
2023-01-31T05:58:23.595Z,97122.38
2023-01-31T06:00:56.591Z,97133.16
2023-01-31T06:03:24.731Z,97143.26
2023-01-31T06:05:53.645Z,97144.33
2023-01-31T06:08:22.240Z,97147.67
2023-01-31T06:10:52.341Z,97153.39
2023-01-31T06:13:20.292Z,97160.28
2023-01-31T06:15:49.777Z,97156.36
2023-01-31T06:18:18.219Z,97162.38
2023-01-31T06:20:46.253Z,97170.84
2023-01-31T06:23:14.648Z,97168.92
2023-01-31T06:25:43.069Z,97168.52
2023-01-31T06:28:11.275Z,97171.37
2023-01-31T06:30:40.274Z,97173.69
2023-01-31T06:33:08.974Z,97164.23
2023-01-31T06:35:37.451Z,97158.50
2023-01-31T06:38:06.615Z,97161.74
2023-01-31T06:40:36.570Z,97163.77
2023-01-31T06:43:04.852Z,97165.52
2023-01-31T06:45:33.122Z,97168.94
2023-01-31T06:48:01.823Z,97168.45
2023-01-31T06:50:30.799Z,97173.02
2023-01-31T06:52:59.475Z,97174.46
2023-01-31T06:55:28.064Z,97176.66
2023-01-31T06:57:56.220Z,97179.62
2023-01-31T07:00:26.066Z,97179.05
2023-01-31T07:02:54.447Z,97181.02
2023-01-31T07:05:23.575Z,97188.17
2023-01-31T07:07:52.502Z,97190.59
2023-01-31T07:10:20.689Z,97194.06
2023-01-31T07:12:48.956Z,97194.13
2023-01-31T07:15:19.799Z,97198.83
2023-01-31T07:17:48.033Z,97198.23
2023-01-31T07:20:16.299Z,97202.45
2023-01-31T07:22:44.240Z,97204.02
2023-01-31T07:25:12.230Z,97208.66
2023-01-31T07:27:40.187Z,97214.64
2023-01-31T07:30:08.772Z,97215.11
2023-01-31T07:32:37.653Z,97220.23
2023-01-31T07:35:06.145Z,97225.61
2023-01-31T07:37:34.212Z,97235.42
2023-01-31T07:40:02.219Z,97234.30
2023-01-31T07:42:30.995Z,97236.96
2023-01-31T07:45:06.959Z,97236.87
2023-01-31T07:47:45.065Z,97240.23
2023-01-31T07:50:13.594Z,97239.68
2023-01-31T07:52:42.082Z,97248.20
2023-01-31T07:55:10.516Z,97253.30
2023-01-31T07:57:39.514Z,97258.91
2023-01-31T08:00:31.097Z,97263.31
2023-01-31T08:03:17.599Z,97266.92
2023-01-31T08:05:47.678Z,97265.23
2023-01-31T08:08:15.815Z,97269.79
2023-01-31T08:10:43.875Z,97271.38
2023-01-31T08:13:12.956Z,97269.33
2023-01-31T08:15:40.924Z,97272.98
2023-01-31T08:18:09.033Z,97274.80
2023-01-31T08:20:41.653Z,97274.33
2023-01-31T08:23:09.624Z,97274.91
2023-01-31T08:25:37.721Z,97279.77
2023-01-31T08:28:05.981Z,97279.89
2023-01-31T08:30:34.614Z,97283.75
2023-01-31T08:33:02.958Z,97287.93
2023-01-31T08:35:31.544Z,97289.52
2023-01-31T08:38:15.418Z,97293.87
2023-01-31T08:40:44.720Z,97289.86
2023-01-31T08:43:13.351Z,97286.44
2023-01-31T08:45:42.391Z,97286.70
2023-01-31T08:48:11.002Z,97284.09
2023-01-31T08:50:40.588Z,97285.78
2023-01-31T08:53:09.293Z,97289.73
2023-01-31T08:55:37.456Z,97290.98
2023-01-31T08:58:06.026Z,97292.36
2023-01-31T09:00:35.857Z,97301.77
2023-01-31T09:03:04.927Z,97304.48
2023-01-31T09:05:34.786Z,97310.74
2023-01-31T09:08:03.068Z,97315.87
2023-01-31T09:10:31.454Z,97322.02
2023-01-31T09:13:10.142Z,97328.70
2023-01-31T09:15:38.186Z,97329.91
2023-01-31T09:18:06.470Z,97327.92
2023-01-31T09:20:34.469Z,97326.27
2023-01-31T09:23:04.005Z,97331.44
2023-01-31T09:25:44.827Z,97329.21
2023-01-31T09:28:24.633Z,97329.20
2023-01-31T09:30:56.608Z,97329.39
2023-01-31T09:33:24.960Z,97329.33
2023-01-31T09:36:02.153Z,97329.16
2023-01-31T09:38:31.066Z,97329.69
2023-01-31T09:41:05.669Z,97332.27
2023-01-31T09:43:44.412Z,97330.17
2023-01-31T09:46:20.108Z,97329.83
2023-01-31T09:48:53.627Z,97333.67
2023-01-31T09:51:24.433Z,97330.61
2023-01-31T09:53:57.232Z,97322.75
2023-01-31T09:56:40.947Z,97323.39
2023-01-31T09:59:12.788Z,97321.23
2023-01-31T10:02:10.126Z,97319.24
2023-01-31T10:05:04.131Z,97320.80
2023-01-31T10:08:08.755Z,97319.02
2023-01-31T10:10:43.504Z,97326.24
2023-01-31T10:13:39.742Z,97320.41
2023-01-31T10:16:25.970Z,97315.52
2023-01-31T10:19:02.513Z,97316.06
2023-01-31T10:21:40.183Z,97312.97
2023-01-31T10:24:19.445Z,97314.61
2023-01-31T10:26:51.508Z,97320.98
2023-01-31T10:29:43.573Z,97317.73
2023-01-31T10:32:38.931Z,97313.23
2023-01-31T10:35:37.329Z,97311.16
2023-01-31T10:38:19.516Z,97311.02
2023-01-31T10:40:59.183Z,97313.17
2023-01-31T10:43:44.605Z,97310.58
2023-01-31T10:46:14.808Z,97305.79
2023-01-31T10:48:47.433Z,97309.10
2023-01-31T10:52:15.095Z,97308.09
2023-01-31T10:55:14.316Z,97311.04
2023-01-31T10:57:45.068Z,97312.47
2023-01-31T11:00:26.481Z,97315.13
2023-01-31T11:02:58.139Z,97318.63
2023-01-31T11:05:29.739Z,97320.66
2023-01-31T11:08:01.449Z,97317.36
2023-01-31T11:10:32.437Z,97322.39
2023-01-31T11:13:07.424Z,97318.19
2023-01-31T11:15:39.537Z,97322.38
2023-01-31T11:18:15.280Z,97317.63
2023-01-31T11:20:50.956Z,97323.61
2023-01-31T11:23:25.953Z,97318.70
2023-01-31T11:25:55.931Z,97316.88
2023-01-31T11:28:38.334Z,97314.30
2023-01-31T11:31:17.677Z,97313.59
2023-01-31T11:33:55.967Z,97310.99
2023-01-31T11:36:28.785Z,97317.13
2023-01-31T11:38:56.963Z,97309.52
2023-01-31T11:41:30.071Z,97303.21
2023-01-31T11:44:16.560Z,97307.04
2023-01-31T11:47:00.752Z,97309.91
2023-01-31T11:49:30.494Z,97312.46
2023-01-31T11:52:21.984Z,97312.89
2023-01-31T11:54:57.943Z,97309.52
2023-01-31T11:57:32.012Z,97314.40
2023-01-31T12:00:03.734Z,97313.87
2023-01-31T12:02:42.207Z,97315.11
2023-01-31T12:05:17.949Z,97317.77
2023-01-31T12:08:06.943Z,97318.29
2023-01-31T12:10:47.235Z,97326.69
2023-01-31T12:13:20.931Z,97325.92
2023-01-31T12:15:57.003Z,97328.87
2023-01-31T12:18:51.932Z,97340.88
2023-01-31T12:21:25.894Z,97353.62
2023-01-31T12:24:15.073Z,97361.89
2023-01-31T12:26:57.024Z,97354.83
2023-01-31T12:29:46.968Z,97362.73
2023-01-31T12:32:35.608Z,97349.02
2023-01-31T12:36:01.687Z,97356.11
2023-01-31T12:38:48.870Z,97360.48
2023-01-31T12:41:40.464Z,97365.98
2023-01-31T12:44:39.716Z,97374.23
2023-01-31T12:47:31.681Z,97380.66
2023-01-31T12:50:02.612Z,97374.48
2023-01-31T12:53:04.759Z,97377.83
2023-01-31T12:55:44.314Z,97380.20
2023-01-31T12:58:30.581Z,97397.48
2023-01-31T13:01:07.629Z,97377.85
2023-01-31T13:03:48.547Z,97386.55
2023-01-31T13:06:23.969Z,97385.32
2023-01-31T13:09:07.773Z,97375.15
2023-01-31T13:11:55.042Z,97378.95
2023-01-31T13:14:31.112Z,97378.35
2023-01-31T13:17:05.016Z,97378.52
2023-01-31T13:19:51.632Z,97382.82
2023-01-31T13:22:28.815Z,97378.02
2023-01-31T13:25:09.004Z,97374.98
2023-01-31T13:27:42.273Z,97378.91
2023-01-31T13:30:24.502Z,97388.24
2023-01-31T13:32:56.643Z,97375.73
2023-01-31T13:35:40.872Z,97369.86
2023-01-31T13:38:21.098Z,97369.36
2023-01-31T13:40:56.382Z,97368.30
2023-01-31T13:43:25.805Z,97368.27
2023-01-31T13:46:08.356Z,97369.64
2023-01-31T13:48:43.798Z,97371.89
2023-01-31T13:51:44.008Z,97373.25
2023-01-31T13:54:36.380Z,97373.75
2023-01-31T13:57:06.688Z,97376.45
2023-01-31T13:59:40.728Z,97369.62
2023-01-31T14:02:21.806Z,97370.98
2023-01-31T14:04:51.226Z,97373.44
2023-01-31T14:07:21.844Z,97377.23
2023-01-31T14:09:50.093Z,97379.74
2023-01-31T14:12:18.717Z,97378.01
2023-01-31T14:14:52.547Z,97384.01
2023-01-31T14:17:29.954Z,97381.73
2023-01-31T14:19:58.022Z,97389.56
2023-01-31T14:22:36.028Z,97391.52
2023-01-31T14:25:15.497Z,97392.14
2023-01-31T14:28:01.465Z,97398.09
2023-01-31T14:30:48.696Z,97403.90
2023-01-31T14:33:20.804Z,97407.78
2023-01-31T14:35:58.107Z,97412.41
2023-01-31T14:38:36.827Z,97406.73
2023-01-31T14:41:16.920Z,97410.22
2023-01-31T14:44:17.001Z,97413.28
2023-01-31T14:46:57.163Z,97413.02
2023-01-31T14:49:26.881Z,97420.46
2023-01-31T14:52:09.811Z,97419.27
2023-01-31T14:54:56.941Z,97419.75
2023-01-31T14:57:30.744Z,97420.59
2023-01-31T15:00:05.095Z,97426.10
2023-01-31T15:02:42.013Z,97428.87
2023-01-31T15:05:21.390Z,97434.15
2023-01-31T15:08:27.003Z,97436.97
2023-01-31T15:11:06.756Z,97437.91
2023-01-31T15:13:47.076Z,97446.73
2023-01-31T15:16:28.355Z,97448.73
2023-01-31T15:19:00.577Z,97450.28
2023-01-31T15:21:35.235Z,97448.73
2023-01-31T15:24:05.315Z,97441.30
2023-01-31T15:26:37.289Z,97445.25
2023-01-31T15:29:07.259Z,97443.23
2023-01-31T15:31:44.478Z,97448.36
2023-01-31T15:34:29.826Z,97453.71
2023-01-31T15:37:04.364Z,97457.88
2023-01-31T15:39:57.086Z,97454.95
2023-01-31T15:42:26.963Z,97455.24
2023-01-31T15:45:13.664Z,97456.00
2023-01-31T15:47:44.712Z,97456.30
2023-01-31T15:50:18.585Z,97453.30
2023-01-31T15:52:47.138Z,97455.95
2023-01-31T15:55:18.825Z,97456.55
2023-01-31T15:57:56.949Z,97464.16
2023-01-31T16:00:35.200Z,97469.64
2023-01-31T16:03:08.081Z,97471.13
2023-01-31T16:05:39.325Z,97476.60
2023-01-31T16:08:28.493Z,97469.10
2023-01-31T16:10:57.965Z,97470.56
2023-01-31T16:13:27.113Z,97478.98
2023-01-31T16:15:55.349Z,97479.63
2023-01-31T16:18:24.546Z,97481.97
2023-01-31T16:20:55.010Z,97480.81
2023-01-31T16:23:22.916Z,97481.96
2023-01-31T16:26:00.930Z,97483.89
2023-01-31T16:28:45.627Z,97489.38
2023-01-31T16:31:17.508Z,97495.02
2023-01-31T16:33:52.705Z,97491.02
2023-01-31T16:36:26.082Z,97489.27
2023-01-31T16:39:01.198Z,97494.85
2023-01-31T16:41:52.570Z,97495.02
2023-01-31T16:44:23.171Z,97492.83
2023-01-31T16:46:51.678Z,97492.09
2023-01-31T16:49:28.924Z,97491.58
2023-01-31T16:52:24.844Z,97491.77
2023-01-31T16:54:56.547Z,97496.85
2023-01-31T16:57:35.857Z,97499.89
2023-01-31T17:00:36.904Z,97499.38
2023-01-31T17:03:19.971Z,97504.30
2023-01-31T17:05:48.288Z,97505.02
2023-01-31T17:08:22.220Z,97507.61
2023-01-31T17:10:51.711Z,97500.23
2023-01-31T17:13:25.840Z,97494.66
2023-01-31T17:15:54.259Z,97489.14
2023-01-31T17:18:22.312Z,97488.92
2023-01-31T17:20:50.859Z,97494.10
2023-01-31T17:23:19.941Z,97493.95
2023-01-31T17:25:48.056Z,97496.45
2023-01-31T17:28:16.286Z,97499.30
2023-01-31T17:30:46.466Z,97496.93
2023-01-31T17:33:16.041Z,97503.60
2023-01-31T17:35:48.991Z,97504.86
2023-01-31T17:38:17.065Z,97505.66
2023-01-31T17:40:48.981Z,97507.13
2023-01-31T17:43:22.141Z,97512.20
2023-01-31T17:45:50.091Z,97509.42
2023-01-31T17:48:26.257Z,97510.33
2023-01-31T17:50:55.425Z,97511.45
2023-01-31T17:53:23.741Z,97509.44
2023-01-31T17:55:54.421Z,97509.64
2023-01-31T17:58:23.090Z,97505.80
2023-01-31T18:00:51.104Z,97505.95
2023-01-31T18:03:25.618Z,97509.52
2023-01-31T18:05:54.853Z,97510.39
2023-01-31T18:08:24.762Z,97514.46
2023-01-31T18:10:55.224Z,97518.02
2023-01-31T18:13:23.151Z,97514.63
2023-01-31T18:16:02.094Z,97520.20
2023-01-31T18:18:30.357Z,97516.60
2023-01-31T18:20:58.952Z,97515.39
2023-01-31T18:23:27.074Z,97517.52
2023-01-31T18:25:54.998Z,97524.84
2023-01-31T18:28:24.076Z,97525.51
2023-01-31T18:30:52.155Z,97526.30
2023-01-31T18:33:20.275Z,97527.92
2023-01-31T18:35:58.732Z,97526.27
2023-01-31T18:38:28.287Z,97522.95
2023-01-31T18:40:59.560Z,97524.16
2023-01-31T18:43:29.822Z,97529.22
2023-01-31T18:45:57.872Z,97528.66
2023-01-31T18:48:26.077Z,97528.05
2023-01-31T18:50:54.370Z,97531.61
2023-01-31T18:53:22.574Z,97532.22
2023-01-31T18:55:58.902Z,97527.65
2023-01-31T18:58:37.405Z,97531.16
2023-01-31T19:01:13.224Z,97528.13
2023-01-31T19:03:42.973Z,97528.55
2023-01-31T19:06:12.425Z,97531.38
2023-01-31T19:08:41.011Z,97532.38
2023-01-31T19:11:09.208Z,97535.69
2023-01-31T19:13:38.359Z,97532.67
2023-01-31T19:16:10.115Z,97529.14
2023-01-31T19:18:38.619Z,97525.92
2023-01-31T19:21:22.165Z,97532.57
2023-01-31T19:23:55.934Z,97534.09
2023-01-31T19:26:24.256Z,97536.11
2023-01-31T19:28:54.445Z,97535.93
2023-01-31T19:31:25.693Z,97536.29
2023-01-31T19:33:56.575Z,97540.09
2023-01-31T19:36:30.433Z,97541.88
2023-01-31T19:39:00.718Z,97538.91
2023-01-31T19:41:33.459Z,97543.95
2023-01-31T19:44:02.055Z,97546.84
2023-01-31T19:46:33.265Z,97545.25
2023-01-31T19:49:01.913Z,97545.84
2023-01-31T19:51:30.966Z,97549.27
2023-01-31T19:54:03.597Z,97551.61
2023-01-31T19:56:32.331Z,97547.85
2023-01-31T19:59:00.875Z,97543.27
2023-01-31T20:01:29.216Z,97549.50
2023-01-31T20:03:57.313Z,97548.74
2023-01-31T20:06:28.843Z,97544.33
2023-01-31T20:08:59.188Z,97549.13
2023-01-31T20:11:29.719Z,97551.55
2023-01-31T20:13:58.114Z,97553.67
2023-01-31T20:16:27.305Z,97550.55
2023-01-31T20:18:56.337Z,97548.83
2023-01-31T20:21:24.595Z,97552.36
2023-01-31T20:23:52.704Z,97548.62
2023-01-31T20:26:22.914Z,97552.01
2023-01-31T20:28:51.215Z,97554.88
2023-01-31T20:31:19.458Z,97553.71
2023-01-31T20:33:47.533Z,97553.74
2023-01-31T20:36:15.503Z,97555.68
2023-01-31T20:38:43.516Z,97561.21
2023-01-31T20:41:11.653Z,97556.55
2023-01-31T20:43:39.656Z,97559.61
2023-01-31T20:46:10.537Z,97557.70
2023-01-31T20:48:40.117Z,97557.48
2023-01-31T20:51:09.037Z,97559.80
2023-01-31T20:53:37.420Z,97558.29
2023-01-31T20:56:10.599Z,97564.48
2023-01-31T20:58:41.433Z,97559.30
2023-01-31T21:01:12.627Z,97556.31
2023-01-31T21:03:40.995Z,97554.69
2023-01-31T21:06:09.274Z,97550.77
2023-01-31T21:08:37.341Z,97548.17
2023-01-31T21:11:08.160Z,97545.83
2023-01-31T21:13:37.241Z,97547.39
2023-01-31T21:16:10.275Z,97546.21
2023-01-31T21:18:40.870Z,97544.81
2023-01-31T21:21:11.123Z,97542.69
2023-01-31T21:23:40.475Z,97536.43
2023-01-31T21:26:11.505Z,97534.05
2023-01-31T21:28:43.981Z,97529.83
2023-01-31T21:31:17.624Z,97533.27
2023-01-31T21:33:48.097Z,97531.88
2023-01-31T21:36:19.701Z,97531.85
2023-01-31T21:38:48.375Z,97532.41
2023-01-31T21:41:36.627Z,97532.08
2023-01-31T21:44:04.717Z,97528.31
2023-01-31T21:46:32.897Z,97531.95
2023-01-31T21:49:01.516Z,97528.27
2023-01-31T21:51:29.691Z,97526.38
2023-01-31T21:53:57.687Z,97529.69
2023-01-31T21:56:28.231Z,97528.34
2023-01-31T21:58:57.175Z,97526.43
2023-01-31T22:01:28.925Z,97527.36
2023-01-31T22:03:58.365Z,97522.94
2023-01-31T22:06:31.561Z,97527.20
2023-01-31T22:09:01.435Z,97519.46
2023-01-31T22:11:34.715Z,97520.85
2023-01-31T22:14:06.287Z,97520.80
2023-01-31T22:16:34.901Z,97522.53
2023-01-31T22:19:06.348Z,97517.60
2023-01-31T22:21:36.886Z,97512.52
2023-01-31T22:24:06.435Z,97510.87
2023-01-31T22:26:37.289Z,97509.17
2023-01-31T22:29:07.748Z,97506.29
2023-01-31T22:31:36.838Z,97507.06
2023-01-31T22:34:07.108Z,97503.43
2023-01-31T22:36:35.624Z,97506.96
2023-01-31T22:39:03.708Z,97505.35
2023-01-31T22:41:32.134Z,97504.88
2023-01-31T22:44:00.091Z,97503.87
2023-01-31T22:46:29.087Z,97502.11
2023-01-31T22:48:57.728Z,97499.88
2023-01-31T22:51:27.947Z,97498.38
2023-01-31T22:53:57.741Z,97495.42
2023-01-31T22:56:31.572Z,97497.25
2023-01-31T22:59:02.623Z,97499.05
2023-01-31T23:01:34.825Z,97495.83
2023-01-31T23:04:06.749Z,97493.93
2023-01-31T23:06:35.878Z,97490.29
2023-01-31T23:09:04.415Z,97485.47
2023-01-31T23:11:32.970Z,97482.98
2023-01-31T23:14:01.139Z,97481.75
2023-01-31T23:16:47.830Z,97477.95
2023-01-31T23:19:16.474Z,97475.11
2023-01-31T23:21:45.169Z,97474.23
2023-01-31T23:24:16.939Z,97471.34
2023-01-31T23:26:44.997Z,97461.93
2023-01-31T23:29:13.422Z,97455.80
2023-01-31T23:31:41.677Z,97451.98
2023-01-31T23:34:10.067Z,97449.86
2023-01-31T23:36:38.049Z,97446.41
2023-01-31T23:39:06.350Z,97447.05
2023-01-31T23:41:34.370Z,97444.05
2023-01-31T23:44:03.720Z,97444.35
2023-01-31T23:46:32.036Z,97444.93
2023-01-31T23:49:00.114Z,97447.78
2023-01-31T23:51:28.643Z,97453.90
2023-01-31T23:53:57.194Z,97450.60
2023-01-31T23:56:26.685Z,97449.59
2023-01-31T23:58:54.873Z,97447.15
